Terminal Aerodrome Forecast
Issued by NWS

Home | Current Version | Previous Version | Text Only | Print | Product List | Glossary On
Versions: 1 2 3 4 5 6 7 8 9 10 11 12 13 14 15 16 17 18 19
000
FTUS43 KIND 160500
TAFLAF
TAF
KLAF 160520Z 1606/1706 VRB03KT P6SM SCT250
     FM161400 17014G22KT P6SM BKN130
     FM170000 14008KT P6SM BKN200
      AMD LTD TO CLD VIS AND WIND TIL 161300=

USA.gov is the U.S. government's official web portal to all federal, state and local government web resources and services.